航空気象通報

ウインドサーファーのための航空気象通報による風予報です。

4/2-3の航空気象通報(国内、海外)

2008年04月02日 23時19分39秒 | TAF
羽田空港
TAF RJTT 020843Z 021812 34008KT 9999 FEW030 SCT060
BECMG 0003 14010KT
BECMG 0609 34012KT
日本時間3日03-09時:340度から8ノットの風
09-12時:風が変化
12-15時:140度から10ノットの風
15-18時:風が変化
18-21時:340度から12ノットの風


那覇空港
TAF ROAH 020842Z 021812 01014KT 9999 FEW020 SCT045
日本時間3日03-21時:010度から14ノットの風


マウイのカフルイ空港
PHOG 021140Z 021212 04010KT P6SM SKC
FM1800 04012G18KT P6SM SCT050
FM2000 05018G25KT P6SM SCT050
FM0500 05012KT P6SM SCT050
FM1000 05008KT P6SM SCT050
ハワイ時間2日02-08時:040度から10ノットの風
08-10時:050度から12ノット、突風18ノット
10-19時:050度から18ノット、突風25ノット
19-24時:050度から12ノットの風
3日00-02時:050度から8ノットの風


サイパン空港
PGSN 021120Z 021212 06011KT P6SM VCSH FEW025
マリアナ時間2日22時-3日22時:060度から11ノットの風

コメント